Flugplatz Aachen-Merzbrück (EDKA)

Hier findest Du alle Informationen zum Flugplatz Aachen-Merzbrück (EDKA).

Informationen für Piloten zum Flugplatz Aachen-Merzbrück

Hier findest Du alle relevanten Informationen, die Du als Pilot benötigst, um Aachen-Merzbrück anzufliegen.

Flugplatz: Aachen-Merzbrück ICAO-Code: EDKA
Frequenz Turm: 122,875 Mhz GAFOR Gebiet: 34
Frequenz Ground: 122,875 Mhz Mogas: nein
Platzrunde: N 1500 ft Landegebühr: 6,65 €
Platzhöhe: - Sunrise: 03:25 Uhr UTC
Pisten: 08/26 - 520 m x 20 m, ASPH Sunset: 19:40 Uhr UTC

Flugwetter am Flugplatz Aachen-Merzbrück

Die METAR Information stammen aus EDLN (50.29 km entfernt).

METAR Code:
2020/05/22 10:20
EDLN 221020Z 16006KT 110V230 CAVOK 24/16 Q1017

Temperatur: 11,8 °C Niederschlag: - Wind: 4,5 kt
Temperatur (min.): 11,7 °C Luftdruck: 1020 hPa Windrichtung: 107 °
Temperatur (max.): 12,2 °C Luftfeuchtigkeit: 61 % Bewölkung: -

Flugschulen am Flugplatz Aachen-Merzbrück

Am Flugplatz Aachen-Merzbrück gibt es eine Flugschule.

Westflug Aachen Dreiachs

Benachbarte Flugplätze und Flugschulen

Es gibt 13 weitere Flugplätze in einem Umkreis von 50 km um den Flugplatz Aachen-Merzbrück.

Jetzt anmelden

Passwort vergessen

Umfrage Archiv

Wären Rettungsgeräte keine Pflicht mehr, würdet Ihr Euer UL trotzdem mit einem ausstatten?

Ja
79.8 %
Nein
20.2 %
Stimmen: 119 | Diskussion
Anzeige: Roland Aircraft
Statistik Alle Mitglieder

Aktuell sind 52 Besucher online.

Anzeige: VFR Sprechfunk Simulator


Anzeige: Pocket FMS